Terminal Aerodrome Forecast
Issued by NWS Goodland, KS

Home | Current Version | Previous Version | Text Only | Print | Product List | Glossary On
Versions: 1 2 3 4 5 6 7 8 9 10 11 12 13 14 15 16 17 18 19 20 21 22
000
FTUS43 KGLD 131730
TAFGLD
TAF
KGLD 131730Z 1318/1418 19020G24KT P6SM BKN015
     FM131900 20014G19KT P6SM FEW040
     FM140000 16008KT P6SM SKC
     FM140900 17005KT 6SM BR OVC010
     FM141600 18005KT P6SM SKC=

USA.gov is the U.S. government's official web portal to all federal, state and local government web resources and services.